WZZ1523 EKCH-EPGD
Flight info
| Callsign | WZZ1523 |
|---|---|
| Flight time | 0h 40m |
| Altitude | 29000 |
| Route | SIMEG Z491 TELMO DCT RUMAR L983 DOMAG T240 OGDAV |
| Aircraft | A21N/M-SDE1E2E3FGIJ1J4RWXY/LB1 |
Departure
| Time | 2026-04-25 13:40 |
|---|---|
| Airport | Copenhagen Kastrup Airport (EKCH) |
Arrival
| Time | 2026-04-25 14:20 |
|---|---|
| Airport | Gdańsk Lech Wałęsa Airport (EPGD) |
| Time | Latitude | Longitude | Altitude | Speed | Heading |
|---|---|---|---|---|---|
| 2026-04-25 12:59 | 55.62518 | 12.65685 | 17 ft | 0 kts | 359° |
| 2026-04-25 13:24 | 55.62518 | 12.65686 | 17 ft | 0 kts | 359° |
| 2026-04-25 13:24 | 55.62518 | 12.65685 | 17 ft | 0 kts | 359° |
| 2026-04-25 13:25 | 55.62518 | 12.65686 | 17 ft | 0 kts | 359° |
| 2026-04-25 13:25 | 55.62511 | 12.65686 | 17 ft | 2 kts | 360° |
| 2026-04-25 13:25 | 55.62496 | 12.65686 | 17 ft | 2 kts | 0° |
| 2026-04-25 13:26 | 55.62481 | 12.65686 | 17 ft | 2 kts | 0° |
| 2026-04-25 13:26 | 55.62470 | 12.65687 | 17 ft | 0 kts | 0° |
| 2026-04-25 13:26 | 55.62456 | 12.65691 | 17 ft | 2 kts | 328° |
| 2026-04-25 13:26 | 55.62446 | 12.65710 | 17 ft | 2 kts | 295° |
| 2026-04-25 13:27 | 55.62443 | 12.65728 | 17 ft | 0 kts | 272° |
| 2026-04-25 13:27 | 55.62443 | 12.65723 | 17 ft | 3 kts | 275° |
| 2026-04-25 13:27 | 55.62442 | 12.65643 | 17 ft | 7 kts | 269° |
| 2026-04-25 13:27 | 55.62441 | 12.65548 | 18 ft | 7 kts | 269° |
| 2026-04-25 13:28 | 55.62440 | 12.65451 | 18 ft | 7 kts | 269° |
| 2026-04-25 13:28 | 55.62440 | 12.65389 | 19 ft | 7 kts | 269° |
| 2026-04-25 13:28 | 55.62439 | 12.65312 | 19 ft | 1 kts | 269° |
| 2026-04-25 13:28 | 55.62439 | 12.65309 | 19 ft | 0 kts | 269° |
| 2026-04-25 13:31 | 55.62439 | 12.65306 | 19 ft | 1 kts | 269° |
| 2026-04-25 13:31 | 55.62438 | 12.65281 | 19 ft | 2 kts | 270° |
| 2026-04-25 13:31 | 55.62437 | 12.65256 | 19 ft | 2 kts | 260° |
| 2026-04-25 13:31 | 55.62428 | 12.65225 | 19 ft | 3 kts | 228° |
| 2026-04-25 13:32 | 55.62405 | 12.65208 | 19 ft | 3 kts | 189° |
| 2026-04-25 13:32 | 55.62378 | 12.65204 | 19 ft | 4 kts | 182° |
| 2026-04-25 13:32 | 55.62345 | 12.65204 | 19 ft | 5 kts | 179° |
| 2026-04-25 13:32 | 55.62309 | 12.65200 | 20 ft | 5 kts | 187° |
| 2026-04-25 13:33 | 55.62270 | 12.65198 | 20 ft | 5 kts | 180° |
| 2026-04-25 13:33 | 55.62229 | 12.65192 | 20 ft | 6 kts | 193° |
| 2026-04-25 13:33 | 55.62193 | 12.65163 | 20 ft | 5 kts | 212° |
| 2026-04-25 13:33 | 55.62163 | 12.65129 | 20 ft | 4 kts | 213° |
| 2026-04-25 13:34 | 55.62139 | 12.65100 | 20 ft | 3 kts | 214° |
| 2026-04-25 13:34 | 55.62121 | 12.65080 | 20 ft | 2 kts | 214° |
| 2026-04-25 13:34 | 55.62117 | 12.65075 | 20 ft | 0 kts | 214° |
| 2026-04-25 13:36 | 55.62106 | 12.65061 | 20 ft | 5 kts | 215° |
| 2026-04-25 13:36 | 55.62056 | 12.65003 | 21 ft | 11 kts | 214° |
| 2026-04-25 13:36 | 55.61983 | 12.64920 | 21 ft | 12 kts | 213° |
| 2026-04-25 13:36 | 55.61917 | 12.64844 | 21 ft | 10 kts | 213° |
| 2026-04-25 13:37 | 55.61859 | 12.64776 | 21 ft | 9 kts | 213° |
| 2026-04-25 13:37 | 55.61808 | 12.64718 | 22 ft | 8 kts | 213° |
| 2026-04-25 13:37 | 55.61765 | 12.64668 | 22 ft | 7 kts | 214° |
| 2026-04-25 13:37 | 55.61723 | 12.64619 | 22 ft | 6 kts | 213° |
| 2026-04-25 13:38 | 55.61686 | 12.64576 | 22 ft | 6 kts | 213° |
| 2026-04-25 13:38 | 55.61657 | 12.64525 | 22 ft | 6 kts | 245° |
| 2026-04-25 13:38 | 55.61651 | 12.64442 | 22 ft | 7 kts | 267° |
| 2026-04-25 13:38 | 55.61647 | 12.64336 | 22 ft | 9 kts | 267° |
| 2026-04-25 13:39 | 55.61643 | 12.64232 | 22 ft | 7 kts | 265° |
| 2026-04-25 13:39 | 55.61637 | 12.64139 | 22 ft | 7 kts | 263° |
| 2026-04-25 13:39 | 55.61614 | 12.64055 | 23 ft | 7 kts | 221° |
| 2026-04-25 13:39 | 55.61458 | 12.63812 | 23 ft | 66 kts | 221° |
| 2026-04-25 13:40 | 55.60917 | 12.62983 | 23 ft | 134 kts | 222° |
| 2026-04-25 13:40 | 55.60083 | 12.61842 | 365 ft | 158 kts | 227° |
| 2026-04-25 13:40 | 55.59286 | 12.60664 | 1192 ft | 148 kts | 232° |
| 2026-04-25 13:40 | 55.58559 | 12.59542 | 1879 ft | 137 kts | 236° |
| 2026-04-25 13:41 | 55.57858 | 12.58426 | 2374 ft | 137 kts | 237° |
| 2026-04-25 13:41 | 55.57148 | 12.57292 | 2838 ft | 139 kts | 237° |
| 2026-04-25 13:41 | 55.56375 | 12.56190 | 3286 ft | 150 kts | 225° |
| 2026-04-25 13:41 | 55.55364 | 12.55360 | 3608 ft | 172 kts | 214° |
| 2026-04-25 13:42 | 55.54171 | 12.54602 | 3957 ft | 190 kts | 210° |
| 2026-04-25 13:42 | 55.52766 | 12.54403 | 4266 ft | 227 kts | 174° |
| 2026-04-25 13:42 | 55.51377 | 12.55992 | 4598 ft | 256 kts | 130° |
| 2026-04-25 13:42 | 55.50600 | 12.58887 | 4926 ft | 273 kts | 105° |
| 2026-04-25 13:43 | 55.50021 | 12.62249 | 5323 ft | 293 kts | 105° |
| 2026-04-25 13:43 | 55.49350 | 12.65702 | 5852 ft | 308 kts | 109° |
| 2026-04-25 13:43 | 55.48534 | 12.69215 | 6614 ft | 313 kts | 112° |
| 2026-04-25 13:43 | 55.47619 | 12.72745 | 7395 ft | 318 kts | 114° |
| 2026-04-25 13:44 | 55.46656 | 12.76240 | 8193 ft | 323 kts | 116° |
| 2026-04-25 13:44 | 55.45638 | 12.79827 | 8876 ft | 329 kts | 116° |
| 2026-04-25 13:44 | 55.44594 | 12.83449 | 9593 ft | 335 kts | 117° |
| 2026-04-25 13:44 | 55.43544 | 12.87066 | 10261 ft | 342 kts | 117° |
| 2026-04-25 13:45 | 55.42434 | 12.90879 | 10638 ft | 358 kts | 117° |
| 2026-04-25 13:45 | 55.41270 | 12.94874 | 10959 ft | 376 kts | 117° |
| 2026-04-25 13:45 | 55.40047 | 12.99059 | 11432 ft | 387 kts | 117° |
| 2026-04-25 13:45 | 55.38826 | 13.03238 | 12074 ft | 391 kts | 118° |
| 2026-04-25 13:46 | 55.37569 | 13.07534 | 12727 ft | 395 kts | 118° |
| 2026-04-25 13:46 | 55.36295 | 13.11882 | 13359 ft | 400 kts | 118° |
| 2026-04-25 13:46 | 55.35021 | 13.16225 | 13935 ft | 405 kts | 118° |
| 2026-04-25 13:46 | 55.33713 | 13.20667 | 14548 ft | 410 kts | 118° |
| 2026-04-25 13:47 | 55.32407 | 13.25100 | 15124 ft | 415 kts | 118° |
| 2026-04-25 13:47 | 55.31076 | 13.29605 | 15661 ft | 420 kts | 118° |
| 2026-04-25 13:47 | 55.29727 | 13.34171 | 16225 ft | 424 kts | 118° |
| 2026-04-25 13:47 | 55.28359 | 13.38782 | 16794 ft | 428 kts | 118° |
| 2026-04-25 13:48 | 55.26967 | 13.43462 | 17340 ft | 432 kts | 118° |
| 2026-04-25 13:48 | 55.25653 | 13.48157 | 17835 ft | 437 kts | 112° |
| 2026-04-25 13:48 | 55.24714 | 13.53256 | 18349 ft | 439 kts | 100° |
| 2026-04-25 13:48 | 55.24205 | 13.58525 | 18880 ft | 441 kts | 94° |
| 2026-04-25 13:49 | 55.23838 | 13.63826 | 19405 ft | 443 kts | 92° |
| 2026-04-25 13:49 | 55.23491 | 13.69202 | 19905 ft | 446 kts | 94° |
| 2026-04-25 13:49 | 55.23130 | 13.74621 | 20366 ft | 450 kts | 94° |
| 2026-04-25 13:49 | 55.22743 | 13.80109 | 20819 ft | 454 kts | 94° |
| 2026-04-25 13:50 | 55.22342 | 13.85558 | 21279 ft | 457 kts | 95° |
| 2026-04-25 13:50 | 55.21928 | 13.91093 | 21701 ft | 461 kts | 95° |
| 2026-04-25 13:50 | 55.21499 | 13.96721 | 22140 ft | 464 kts | 96° |
| 2026-04-25 13:50 | 55.21067 | 14.02307 | 22567 ft | 467 kts | 96° |
| 2026-04-25 13:51 | 55.20629 | 14.07914 | 22974 ft | 470 kts | 96° |
| 2026-04-25 13:51 | 55.20179 | 14.13613 | 23371 ft | 474 kts | 96° |
| 2026-04-25 13:51 | 55.19726 | 14.19350 | 23751 ft | 477 kts | 96° |
| 2026-04-25 13:51 | 55.19272 | 14.25071 | 24269 ft | 475 kts | 96° |
| 2026-04-25 13:52 | 55.18825 | 14.30656 | 25080 ft | 466 kts | 96° |
| 2026-04-25 13:52 | 55.18378 | 14.36197 | 25766 ft | 461 kts | 95° |
| 2026-04-25 13:52 | 55.17924 | 14.41789 | 26238 ft | 462 kts | 95° |
| 2026-04-25 13:52 | 55.17478 | 14.47286 | 26607 ft | 465 kts | 95° |
| 2026-04-25 13:53 | 55.17019 | 14.52941 | 26966 ft | 468 kts | 96° |
| 2026-04-25 13:53 | 55.16559 | 14.58574 | 27329 ft | 471 kts | 95° |
| 2026-04-25 13:53 | 55.16095 | 14.64173 | 27713 ft | 473 kts | 96° |
| 2026-04-25 13:53 | 55.15619 | 14.69901 | 28082 ft | 475 kts | 96° |
| 2026-04-25 13:54 | 55.15145 | 14.75589 | 28428 ft | 477 kts | 97° |
| 2026-04-25 13:54 | 55.14659 | 14.81355 | 28768 ft | 480 kts | 97° |
| 2026-04-25 13:54 | 55.14171 | 14.87121 | 29120 ft | 482 kts | 97° |
| 2026-04-25 13:54 | 55.13679 | 14.92899 | 29458 ft | 484 kts | 97° |
| 2026-04-25 13:55 | 55.13142 | 14.98698 | 29790 ft | 487 kts | 98° |
| 2026-04-25 13:55 | 55.12580 | 15.04483 | 30116 ft | 490 kts | 99° |
| 2026-04-25 13:55 | 55.12007 | 15.10337 | 30451 ft | 492 kts | 98° |
| 2026-04-25 13:55 | 55.11420 | 15.16278 | 30761 ft | 494 kts | 98° |
| 2026-04-25 13:56 | 55.10839 | 15.22152 | 31078 ft | 496 kts | 98° |
| 2026-04-25 13:56 | 55.10254 | 15.28086 | 31400 ft | 498 kts | 98° |
| 2026-04-25 13:56 | 55.09659 | 15.34064 | 31689 ft | 500 kts | 98° |
| 2026-04-25 13:56 | 55.09073 | 15.39969 | 31988 ft | 501 kts | 98° |
| 2026-04-25 13:57 | 55.08475 | 15.45954 | 32260 ft | 503 kts | 98° |
| 2026-04-25 13:57 | 55.08072 | 15.49980 | 32483 ft | 504 kts | 98° |
| 2026-04-25 13:57 | 55.07262 | 15.57969 | 32807 ft | 507 kts | 98° |
| 2026-04-25 13:57 | 55.06649 | 15.64035 | 33102 ft | 508 kts | 98° |
| 2026-04-25 13:58 | 55.06025 | 15.70157 | 33364 ft | 510 kts | 99° |
| 2026-04-25 13:58 | 55.05401 | 15.76244 | 33562 ft | 512 kts | 99° |
| 2026-04-25 13:58 | 55.04776 | 15.82307 | 33801 ft | 513 kts | 99° |
| 2026-04-25 13:58 | 55.04139 | 15.88436 | 34036 ft | 514 kts | 99° |
| 2026-04-25 13:59 | 55.03508 | 15.94501 | 34220 ft | 515 kts | 99° |
| 2026-04-25 13:59 | 55.02861 | 16.00673 | 34402 ft | 518 kts | 99° |
| 2026-04-25 13:59 | 55.02205 | 16.06883 | 34609 ft | 519 kts | 99° |
| 2026-04-25 13:59 | 55.01553 | 16.13056 | 34817 ft | 520 kts | 99° |
| 2026-04-25 14:00 | 55.01122 | 16.17107 | 34959 ft | 520 kts | 99° |
| 2026-04-25 14:00 | 55.00244 | 16.25311 | 35301 ft | 517 kts | 99° |
| 2026-04-25 14:00 | 54.99582 | 16.31506 | 35555 ft | 516 kts | 99° |
| 2026-04-25 14:00 | 54.98926 | 16.37580 | 35792 ft | 516 kts | 99° |
| 2026-04-25 14:01 | 54.98260 | 16.43709 | 35993 ft | 516 kts | 99° |
| 2026-04-25 14:01 | 54.97599 | 16.49774 | 36202 ft | 516 kts | 99° |
| 2026-04-25 14:01 | 54.96928 | 16.55875 | 36368 ft | 515 kts | 99° |
| 2026-04-25 14:01 | 54.96258 | 16.61981 | 36548 ft | 514 kts | 99° |
| 2026-04-25 14:02 | 54.95581 | 16.68094 | 36724 ft | 514 kts | 100° |
| 2026-04-25 14:02 | 54.94228 | 16.80241 | 36437 ft | 507 kts | 100° |
| 2026-04-25 14:02 | 54.94004 | 16.82244 | 36277 ft | 507 kts | 100° |
| 2026-04-25 14:03 | 54.92873 | 16.92285 | 35350 ft | 510 kts | 101° |
| 2026-04-25 14:03 | 54.92190 | 16.98316 | 34771 ft | 512 kts | 100° |
| 2026-04-25 14:03 | 54.91501 | 17.04387 | 34195 ft | 514 kts | 100° |
| 2026-04-25 14:03 | 54.90808 | 17.10461 | 33749 ft | 512 kts | 101° |
| 2026-04-25 14:04 | 54.90122 | 17.16419 | 33371 ft | 509 kts | 101° |
| 2026-04-25 14:04 | 54.89423 | 17.22448 | 32939 ft | 506 kts | 101° |
| 2026-04-25 14:04 | 54.88728 | 17.28441 | 32437 ft | 504 kts | 101° |
| 2026-04-25 14:04 | 54.88043 | 17.34303 | 31964 ft | 501 kts | 101° |
| 2026-04-25 14:05 | 54.87244 | 17.40145 | 31424 ft | 498 kts | 110° |
| 2026-04-25 14:05 | 54.85843 | 17.45663 | 30650 ft | 497 kts | 123° |
| 2026-04-25 14:05 | 54.84078 | 17.50721 | 29727 ft | 502 kts | 127° |
| 2026-04-25 14:05 | 54.82170 | 17.55834 | 28716 ft | 509 kts | 127° |
| 2026-04-25 14:06 | 54.80229 | 17.60993 | 27683 ft | 516 kts | 127° |
| 2026-04-25 14:06 | 54.78286 | 17.66240 | 26863 ft | 517 kts | 127° |
| 2026-04-25 14:06 | 54.76363 | 17.71516 | 26250 ft | 513 kts | 126° |
| 2026-04-25 14:06 | 54.74506 | 17.76662 | 25703 ft | 507 kts | 126° |
| 2026-04-25 14:07 | 54.72646 | 17.81820 | 25137 ft | 503 kts | 126° |
| 2026-04-25 14:07 | 54.70810 | 17.86914 | 24537 ft | 499 kts | 126° |
| 2026-04-25 14:07 | 54.68983 | 17.91962 | 23955 ft | 492 kts | 126° |
| 2026-04-25 14:07 | 54.67175 | 17.96958 | 23183 ft | 486 kts | 125° |
| 2026-04-25 14:08 | 54.65414 | 18.01799 | 22335 ft | 481 kts | 126° |
| 2026-04-25 14:08 | 54.63658 | 18.06634 | 21559 ft | 474 kts | 126° |
| 2026-04-25 14:08 | 54.61912 | 18.11426 | 20763 ft | 468 kts | 126° |
| 2026-04-25 14:08 | 54.60177 | 18.16168 | 19909 ft | 461 kts | 126° |
| 2026-04-25 14:09 | 54.58506 | 18.20727 | 18908 ft | 453 kts | 126° |
| 2026-04-25 14:09 | 54.56834 | 18.25284 | 17785 ft | 448 kts | 125° |
| 2026-04-25 14:09 | 54.55183 | 18.29764 | 16408 ft | 450 kts | 125° |
| 2026-04-25 14:09 | 54.54060 | 18.32809 | 15463 ft | 450 kts | 124° |
| 2026-04-25 14:10 | 54.51855 | 18.38786 | 13906 ft | 438 kts | 124° |
| 2026-04-25 14:10 | 54.50256 | 18.43117 | 12807 ft | 429 kts | 124° |
| 2026-04-25 14:10 | 54.48690 | 18.47353 | 11713 ft | 421 kts | 124° |
| 2026-04-25 14:10 | 54.47145 | 18.51523 | 10606 ft | 413 kts | 124° |
| 2026-04-25 14:11 | 54.45608 | 18.55658 | 9465 ft | 405 kts | 123° |
| 2026-04-25 14:11 | 54.44121 | 18.59650 | 8358 ft | 399 kts | 123° |
| 2026-04-25 14:11 | 54.42677 | 18.63635 | 7254 ft | 391 kts | 119° |
| 2026-04-25 14:11 | 54.41505 | 18.67782 | 6202 ft | 382 kts | 114° |
| 2026-04-25 14:12 | 54.40483 | 18.71867 | 5463 ft | 365 kts | 113° |
| 2026-04-25 14:12 | 54.39526 | 18.75779 | 5025 ft | 342 kts | 113° |
| 2026-04-25 14:12 | 54.38642 | 18.79377 | 4772 ft | 318 kts | 113° |
| 2026-04-25 14:12 | 54.37799 | 18.82770 | 4504 ft | 300 kts | 113° |
| 2026-04-25 14:13 | 54.36990 | 18.85955 | 4238 ft | 283 kts | 117° |
| 2026-04-25 14:13 | 54.35807 | 18.88468 | 3972 ft | 266 kts | 153° |
| 2026-04-25 14:13 | 54.34171 | 18.89288 | 3852 ft | 236 kts | 194° |
| 2026-04-25 14:13 | 54.32748 | 18.88257 | 3769 ft | 212 kts | 234° |
| 2026-04-25 14:14 | 54.31891 | 18.86283 | 3724 ft | 205 kts | 245° |
| 2026-04-25 14:14 | 54.31256 | 18.84119 | 3643 ft | 201 kts | 254° |
| 2026-04-25 14:14 | 54.30777 | 18.81899 | 3573 ft | 200 kts | 256° |
| 2026-04-25 14:14 | 54.30331 | 18.79684 | 3484 ft | 190 kts | 260° |
| 2026-04-25 14:15 | 54.30282 | 18.77557 | 3386 ft | 177 kts | 282° |
| 2026-04-25 14:15 | 54.30369 | 18.76862 | 3365 ft | 177 kts | 286° |
| 2026-04-25 14:15 | 54.31088 | 18.73591 | 3235 ft | 176 kts | 293° |
| 2026-04-25 14:15 | 54.31564 | 18.71759 | 3283 ft | 158 kts | 294° |
| 2026-04-25 14:16 | 54.31984 | 18.70109 | 3096 ft | 145 kts | 292° |
| 2026-04-25 14:16 | 54.32359 | 18.68599 | 2891 ft | 132 kts | 292° |
| 2026-04-25 14:16 | 54.32712 | 18.67158 | 2724 ft | 131 kts | 291° |
| 2026-04-25 14:16 | 54.33062 | 18.65725 | 2597 ft | 129 kts | 292° |
| 2026-04-25 14:17 | 54.33407 | 18.64312 | 2429 ft | 128 kts | 291° |
| 2026-04-25 14:17 | 54.33746 | 18.62928 | 2251 ft | 127 kts | 290° |
| 2026-04-25 14:17 | 54.34091 | 18.61516 | 2078 ft | 127 kts | 290° |
| 2026-04-25 14:17 | 54.34433 | 18.60121 | 1899 ft | 126 kts | 289° |
| 2026-04-25 14:18 | 54.34773 | 18.58738 | 1725 ft | 126 kts | 290° |
| 2026-04-25 14:18 | 54.35111 | 18.57367 | 1542 ft | 125 kts | 290° |
| 2026-04-25 14:18 | 54.35448 | 18.55994 | 1380 ft | 125 kts | 290° |
| 2026-04-25 14:18 | 54.35789 | 18.54616 | 1210 ft | 124 kts | 289° |
| 2026-04-25 14:19 | 54.36123 | 18.53259 | 1046 ft | 124 kts | 290° |
| 2026-04-25 14:19 | 54.36459 | 18.51893 | 872 ft | 124 kts | 290° |
| 2026-04-25 14:19 | 54.36787 | 18.50549 | 704 ft | 123 kts | 290° |
| 2026-04-25 14:19 | 54.37118 | 18.49199 | 538 ft | 122 kts | 289° |
| 2026-04-25 14:20 | 54.37422 | 18.47960 | 472 ft | 92 kts | 293° |
| 2026-04-25 14:20 | 54.37559 | 18.47404 | 462 ft | 64 kts | 294° |
| 2026-04-25 14:20 | 54.37755 | 18.46611 | 456 ft | 44 kts | 296° |
| 2026-04-25 14:20 | 54.37855 | 18.46221 | 456 ft | 33 kts | 294° |
| 2026-04-25 14:21 | 54.37954 | 18.45919 | 456 ft | 26 kts | 311° |
| 2026-04-25 14:21 | 54.38059 | 18.45755 | 457 ft | 9 kts | 322° |
| 2026-04-25 14:21 | 54.38115 | 18.45704 | 457 ft | 8 kts | 4° |
| 2026-04-25 14:21 | 54.38140 | 18.45787 | 457 ft | 10 kts | 112° |
| 2026-04-25 14:22 | 54.38109 | 18.45914 | 457 ft | 12 kts | 113° |
| 2026-04-25 14:22 | 54.38119 | 18.46061 | 456 ft | 14 kts | 40° |
| 2026-04-25 14:22 | 54.38176 | 18.46143 | 457 ft | 10 kts | 83° |
| 2026-04-25 14:22 | 54.38149 | 18.46277 | 457 ft | 12 kts | 113° |
| 2026-04-25 14:23 | 54.38112 | 18.46429 | 456 ft | 14 kts | 113° |
| 2026-04-25 14:23 | 54.38093 | 18.46517 | 456 ft | 4 kts | 80° |
| 2026-04-25 14:23 | 54.38119 | 18.46547 | 456 ft | 3 kts | 22° |
| 2026-04-25 14:23 | 54.38132 | 18.46556 | 457 ft | 0 kts | 22° |